createdAt,value
2023-02-23T00:02:23.248Z,5.40
2023-02-23T00:06:25.387Z,5.32
2023-02-23T00:10:28.157Z,5.40
2023-02-23T00:14:29.515Z,5.59
2023-02-23T00:18:30.884Z,5.51
2023-02-23T00:22:32.221Z,5.43
2023-02-23T00:26:35.850Z,5.50
2023-02-23T00:30:37.224Z,5.48
2023-02-23T00:34:38.684Z,5.49
2023-02-23T00:38:40.763Z,5.47
2023-02-23T00:42:44.463Z,5.49
2023-02-23T00:46:45.932Z,5.55
2023-02-23T00:50:47.277Z,5.61
2023-02-23T00:54:48.651Z,5.61
2023-02-23T00:58:51.383Z,5.60
2023-02-23T01:02:52.752Z,5.69
2023-02-23T01:06:54.085Z,5.71
2023-02-23T01:10:55.459Z,5.64
2023-02-23T01:14:58.190Z,5.62
2023-02-23T01:19:01.640Z,5.68
2023-02-23T01:23:04.058Z,5.59
2023-02-23T01:27:05.523Z,5.54
2023-02-23T01:31:09.516Z,5.53
2023-02-23T01:35:11.969Z,5.49
2023-02-23T01:39:14.745Z,5.47
2023-02-23T01:43:16.987Z,5.41
2023-02-23T01:47:19.724Z,5.38
2023-02-23T01:51:21.694Z,5.18
2023-02-23T01:55:23.453Z,5.27
2023-02-23T01:59:25.950Z,5.21
2023-02-23T02:03:31.371Z,5.18
2023-02-23T02:07:33.026Z,5.37
2023-02-23T02:11:34.839Z,5.28
2023-02-23T02:15:39.453Z,5.33
2023-02-23T02:20:04.601Z,5.26
2023-02-23T02:24:23.341Z,5.27
2023-02-23T02:28:40.983Z,5.15
2023-02-23T02:32:56.069Z,5.22
2023-02-23T02:37:12.490Z,5.16
2023-02-23T02:41:18.709Z,5.04
2023-02-23T02:45:25.358Z,4.95
2023-02-23T02:49:29.394Z,5.04
2023-02-23T02:53:36.917Z,5.09
2023-02-23T02:57:39.546Z,4.92
2023-02-23T03:01:40.987Z,4.91
2023-02-23T03:05:45.100Z,4.91
2023-02-23T03:09:51.776Z,4.84
2023-02-23T03:13:59.314Z,4.85
2023-02-23T03:18:06.127Z,4.90
2023-02-23T03:22:12.163Z,4.99
2023-02-23T03:26:20.613Z,5.02
2023-02-23T03:30:25.532Z,4.96
2023-02-23T03:34:28.796Z,4.97
2023-02-23T03:38:34.077Z,4.99
2023-02-23T03:42:37.901Z,4.90
2023-02-23T03:46:40.762Z,4.82
2023-02-23T03:50:45.641Z,4.70
2023-02-23T03:54:49.675Z,4.70
2023-02-23T03:58:56.387Z,4.60
2023-02-23T04:02:59.751Z,4.53
2023-02-23T04:07:02.595Z,4.47
2023-02-23T04:11:10.077Z,4.33
2023-02-23T04:15:15.278Z,4.35
2023-02-23T04:19:16.640Z,4.33
2023-02-23T04:23:18.163Z,4.24
2023-02-23T04:27:19.645Z,4.19
2023-02-23T04:31:24.915Z,4.08
2023-02-23T04:35:27.057Z,4.03
2023-02-23T04:39:28.546Z,4.00
2023-02-23T04:43:29.928Z,4.04
2023-02-23T04:47:32.674Z,4.18
2023-02-23T04:51:34.077Z,4.02
2023-02-23T04:55:35.421Z,4.01
2023-02-23T04:59:36.914Z,3.96
2023-02-23T05:03:39.647Z,3.96
2023-02-23T05:07:41.011Z,3.98
2023-02-23T05:11:42.355Z,3.91
2023-02-23T05:15:43.825Z,3.94
2023-02-23T05:19:46.591Z,3.96
2023-02-23T05:23:47.945Z,3.90
2023-02-23T05:27:49.335Z,3.91
2023-02-23T05:31:50.765Z,3.90
2023-02-23T05:35:53.514Z,3.98
2023-02-23T05:39:54.859Z,3.90
2023-02-23T05:43:56.230Z,3.92
2023-02-23T05:47:57.648Z,4.00
2023-02-23T05:52:00.337Z,4.00
2023-02-23T05:56:01.853Z,4.02
2023-02-23T06:00:04.660Z,4.00
2023-02-23T06:04:06.340Z,3.94
2023-02-23T06:08:09.255Z,4.04
2023-02-23T06:12:10.623Z,4.06
2023-02-23T06:16:12.092Z,4.01
2023-02-23T06:20:13.585Z,4.06
2023-02-23T06:24:16.300Z,4.05
2023-02-23T06:28:17.821Z,4.03
2023-02-23T06:32:19.264Z,4.06
2023-02-23T06:36:20.692Z,4.11
2023-02-23T06:40:23.712Z,4.19
2023-02-23T06:44:25.220Z,4.21
2023-02-23T06:48:26.567Z,4.27
2023-02-23T06:52:27.902Z,4.38
2023-02-23T06:56:30.653Z,4.46
2023-02-23T07:00:32.030Z,4.58
2023-02-23T07:04:33.371Z,4.69
2023-02-23T07:08:35.088Z,4.82
2023-02-23T07:12:37.785Z,5.00
2023-02-23T07:16:39.639Z,5.18
2023-02-23T07:20:41.062Z,5.41
2023-02-23T07:24:42.415Z,5.67
2023-02-23T07:28:45.132Z,5.91
2023-02-23T07:32:46.536Z,6.08
2023-02-23T07:36:47.980Z,6.19
2023-02-23T07:40:49.696Z,6.42
2023-02-23T07:44:52.420Z,6.58
2023-02-23T07:48:53.846Z,6.64
2023-02-23T07:52:55.186Z,6.75
2023-02-23T07:56:56.642Z,6.86
2023-02-23T08:00:59.370Z,7.04
2023-02-23T08:05:00.773Z,7.33
2023-02-23T08:09:02.355Z,7.53
2023-02-23T08:13:04.153Z,7.76
2023-02-23T08:17:06.946Z,7.87
2023-02-23T08:21:08.384Z,8.01
2023-02-23T08:25:10.161Z,8.18
2023-02-23T08:29:11.497Z,8.44
2023-02-23T08:33:14.242Z,8.72
2023-02-23T08:37:15.589Z,8.94
2023-02-23T08:41:17.773Z,9.00
2023-02-23T08:45:19.730Z,9.08
2023-02-23T08:49:22.606Z,9.24
2023-02-23T08:53:23.982Z,9.21
2023-02-23T08:57:25.423Z,9.27
2023-02-23T09:01:26.854Z,9.44
2023-02-23T09:05:29.630Z,9.57
2023-02-23T09:09:31.094Z,9.56
2023-02-23T09:13:32.488Z,9.51
2023-02-23T09:17:33.899Z,9.55
2023-02-23T09:21:36.813Z,9.55
2023-02-23T09:25:41.532Z,9.64
2023-02-23T09:29:42.865Z,9.64
2023-02-23T09:33:44.228Z,9.61
2023-02-23T09:37:49.560Z,9.63
2023-02-23T09:41:55.994Z,9.78
2023-02-23T09:46:03.013Z,9.79
2023-02-23T09:50:06.372Z,9.75
2023-02-23T09:54:11.610Z,9.82
2023-02-23T09:58:19.690Z,10.07
2023-02-23T10:02:23.652Z,10.21
2023-02-23T10:06:25.416Z,10.49
2023-02-23T10:10:34.125Z,10.53
2023-02-23T10:14:47.197Z,10.82
2023-02-23T10:18:53.553Z,11.00
2023-02-23T10:22:57.278Z,10.97
2023-02-23T10:27:02.877Z,11.14
2023-02-23T10:31:12.851Z,10.98
2023-02-23T10:35:15.413Z,11.01
2023-02-23T10:39:16.926Z,11.07
2023-02-23T10:43:19.632Z,11.18
2023-02-23T10:47:22.376Z,11.28
2023-02-23T10:51:26.733Z,11.14
2023-02-23T10:55:28.872Z,11.19
2023-02-23T10:59:31.901Z,11.30
2023-02-23T11:03:35.569Z,11.32
2023-02-23T11:07:36.919Z,11.33
2023-02-23T11:11:38.276Z,11.34
2023-02-23T11:15:50.450Z,11.30
2023-02-23T11:19:57.438Z,11.40
2023-02-23T11:24:01.849Z,11.43
2023-02-23T11:28:03.314Z,11.38
2023-02-23T11:32:10.457Z,11.33
2023-02-23T11:36:16.795Z,11.45
2023-02-23T11:40:20.050Z,11.60
2023-02-23T11:44:22.478Z,11.86
2023-02-23T11:48:28.322Z,12.03
2023-02-23T11:52:29.846Z,12.20
2023-02-23T11:56:32.497Z,12.53
2023-02-23T12:00:34.000Z,12.78
2023-02-23T12:04:38.456Z,12.94
2023-02-23T12:08:43.526Z,12.97
2023-02-23T12:12:49.204Z,12.78
2023-02-23T12:20:56.118Z,12.50
2023-02-23T12:25:00.390Z,12.47
2023-02-23T12:29:05.442Z,12.43
2023-02-23T12:33:10.198Z,12.46
2023-02-23T12:37:20.130Z,12.45
2023-02-23T12:41:26.392Z,12.44
2023-02-23T12:45:31.081Z,12.43
2023-02-23T12:49:36.610Z,12.54
2023-02-23T12:53:41.341Z,12.61
2023-02-23T12:57:48.334Z,12.71
2023-02-23T13:01:53.179Z,12.90
2023-02-23T13:05:59.928Z,12.99
2023-02-23T13:10:12.406Z,13.08
2023-02-23T13:14:17.929Z,13.07
2023-02-23T13:18:23.970Z,13.01
2023-02-23T13:22:28.409Z,13.03
2023-02-23T13:26:39.007Z,13.06
2023-02-23T13:30:40.487Z,13.15
2023-02-23T13:34:43.165Z,13.23
2023-02-23T13:38:49.840Z,13.23
2023-02-23T13:42:57.033Z,13.07
2023-02-23T13:47:00.643Z,12.96
2023-02-23T13:51:04.960Z,13.18
2023-02-23T13:55:46.917Z,13.15
2023-02-23T13:59:51.815Z,13.10
2023-02-23T14:03:54.706Z,12.99
2023-02-23T14:07:58.349Z,13.11
2023-02-23T14:12:03.179Z,13.11
2023-02-23T14:16:10.482Z,12.98
2023-02-23T14:20:24.411Z,13.07
2023-02-23T14:24:29.525Z,12.94
2023-02-23T14:28:34.030Z,12.74
2023-02-23T14:32:39.566Z,12.57
2023-02-23T14:36:44.103Z,12.38
2023-02-23T14:40:48.294Z,12.29
2023-02-23T14:44:49.909Z,12.25
2023-02-23T14:49:05.480Z,12.14
2023-02-23T14:53:10.668Z,12.14
2023-02-23T14:57:17.423Z,12.08
2023-02-23T15:01:31.958Z,12.07
2023-02-23T15:05:37.014Z,12.08
2023-02-23T15:09:41.497Z,12.14
2023-02-23T15:13:47.044Z,12.20
2023-02-23T15:17:49.595Z,12.14
2023-02-23T15:21:53.790Z,12.15
2023-02-23T15:25:55.231Z,12.19
2023-02-23T15:29:56.821Z,12.23
2023-02-23T15:33:58.227Z,12.39
2023-02-23T15:38:13.597Z,12.43
2023-02-23T15:42:22.511Z,12.37
2023-02-23T15:46:26.502Z,12.29
2023-02-23T15:50:36.600Z,12.12
2023-02-23T15:54:44.915Z,12.11
2023-02-23T15:58:56.350Z,12.04
2023-02-23T16:02:58.661Z,11.91
2023-02-23T16:07:07.742Z,11.80
2023-02-23T16:11:13.016Z,11.68
2023-02-23T16:15:21.128Z,11.75
2023-02-23T16:19:23.161Z,11.58
2023-02-23T16:23:33.304Z,11.42
2023-02-23T16:27:37.395Z,11.30
2023-02-23T16:31:43.511Z,11.20
2023-02-23T16:35:46.199Z,11.06
2023-02-23T16:39:47.597Z,10.99
2023-02-23T16:43:51.785Z,10.91
2023-02-23T16:47:53.160Z,10.84
2023-02-23T16:51:54.543Z,10.70
2023-02-23T16:55:56.454Z,10.53
2023-02-23T16:59:59.271Z,10.47
2023-02-23T17:04:00.686Z,10.42
2023-02-23T17:08:02.081Z,10.33
2023-02-23T17:12:03.618Z,10.47
2023-02-23T17:16:07.419Z,10.67
2023-02-23T17:20:09.509Z,10.48
2023-02-23T17:24:10.919Z,10.34
2023-02-23T17:28:12.317Z,10.13
2023-02-23T17:32:16.132Z,10.10
2023-02-23T17:36:18.165Z,10.00
2023-02-23T17:40:21.188Z,9.87
2023-02-23T17:44:22.867Z,9.75
2023-02-23T17:48:26.249Z,9.68
2023-02-23T17:52:28.291Z,9.63
2023-02-23T17:56:29.793Z,9.53
2023-02-23T18:00:31.173Z,9.54
2023-02-23T18:04:33.916Z,9.40
2023-02-23T18:08:35.529Z,9.43
2023-02-23T18:12:36.902Z,9.37
2023-02-23T18:16:38.261Z,9.38
2023-02-23T18:20:40.988Z,9.31
2023-02-23T18:24:42.404Z,9.29
2023-02-23T18:28:43.907Z,9.24
2023-02-23T18:32:45.760Z,9.12
2023-02-23T18:36:48.701Z,9.11
2023-02-23T18:40:50.032Z,8.98
2023-02-23T18:44:51.510Z,8.98
2023-02-23T18:48:52.894Z,8.87
2023-02-23T18:52:56.264Z,8.83
2023-02-23T18:56:57.627Z,8.75
2023-02-23T19:00:59.041Z,8.69
2023-02-23T19:05:00.413Z,8.60
2023-02-23T19:09:03.478Z,8.58
2023-02-23T19:13:04.842Z,8.44
2023-02-23T19:17:06.244Z,8.36
2023-02-23T19:21:07.594Z,8.31
2023-02-23T19:25:10.514Z,8.16
2023-02-23T19:29:11.903Z,8.01
2023-02-23T19:33:13.846Z,8.00
2023-02-23T19:37:15.249Z,7.98
2023-02-23T19:41:19.270Z,7.84
2023-02-23T19:45:20.890Z,7.70
2023-02-23T19:49:22.504Z,7.76
2023-02-23T19:53:23.912Z,7.86
2023-02-23T19:57:26.870Z,7.80
2023-02-23T20:01:28.287Z,7.73
2023-02-23T20:05:29.749Z,7.72
2023-02-23T20:09:31.143Z,7.71
2023-02-23T20:13:33.931Z,7.52
2023-02-23T20:17:35.509Z,7.56
2023-02-23T20:21:37.057Z,7.60
2023-02-23T20:25:41.191Z,7.55
2023-02-23T20:29:43.903Z,7.47
2023-02-23T20:33:45.259Z,7.48
2023-02-23T20:37:46.630Z,7.38
2023-02-23T20:41:48.035Z,7.16
2023-02-23T20:45:50.793Z,7.08
2023-02-23T20:49:52.209Z,7.11
2023-02-23T20:53:53.626Z,7.18
2023-02-23T20:57:55.777Z,7.11
2023-02-23T21:01:58.477Z,7.15
2023-02-23T21:05:59.942Z,7.18
2023-02-23T21:10:01.338Z,7.24
2023-02-23T21:14:02.694Z,7.13
2023-02-23T21:18:06.019Z,7.20
2023-02-23T21:22:07.429Z,7.08
2023-02-23T21:26:09.111Z,7.08
2023-02-23T21:30:11.382Z,7.11
2023-02-23T21:34:14.186Z,7.17
2023-02-23T21:38:15.542Z,7.21
2023-02-23T21:42:16.894Z,7.10
2023-02-23T21:46:18.365Z,7.07
2023-02-23T21:50:21.241Z,7.19
2023-02-23T21:54:22.599Z,7.17
2023-02-23T21:58:24.039Z,7.01
2023-02-23T22:02:25.422Z,6.96
2023-02-23T22:06:29.482Z,6.97
2023-02-23T22:10:31.310Z,7.00
2023-02-23T22:14:32.948Z,7.01
2023-02-23T22:18:34.329Z,6.91
2023-02-23T22:22:37.115Z,6.97
2023-02-23T22:26:39.830Z,6.95
2023-02-23T22:30:41.676Z,6.92
2023-02-23T22:34:42.991Z,7.07
2023-02-23T22:38:46.144Z,7.01
2023-02-23T22:42:47.472Z,6.92
2023-02-23T22:46:48.911Z,6.94
2023-02-23T22:50:50.789Z,6.92
2023-02-23T22:54:53.483Z,7.00
2023-02-23T22:58:54.993Z,7.07
2023-02-23T23:02:56.420Z,7.01
2023-02-23T23:06:57.785Z,7.04
2023-02-23T23:11:03.016Z,7.22
2023-02-23T23:15:04.710Z,7.16
2023-02-23T23:19:07.037Z,7.26
2023-02-23T23:23:08.391Z,7.22
2023-02-23T23:27:11.117Z,7.27
2023-02-23T23:31:12.598Z,7.25
2023-02-23T23:35:13.957Z,7.25
2023-02-23T23:39:16.240Z,7.26
2023-02-23T23:43:19.147Z,7.22
2023-02-23T23:47:20.515Z,7.24
2023-02-23T23:51:22.296Z,7.24
2023-02-23T23:55:23.635Z,7.22
2023-02-23T23:59:26.781Z,7.26
